Time;durP1;ratioP1;P1;durP2;ratioP2;P2;SDS_P1;SDS_P2;PMS_P1;PMS_P2;Temp;Humidity;BMP_temperature;BMP_pressure;BME280_temperature;BME280_humidity;BME280_pressure;Samples;Min_cycle;Max_cycle;Signal;HPM_P1;HPM_P2
2022/09/05 00:01:09;;;;;;;;;;;;;;;21.99;44.19;100846.59;4987169;28;6820;-77
2022/09/05 00:04:00;;;;;;;;;;;;;;;21.99;44.52;100849.19;4978686;28;7019;-77
2022/09/05 00:06:38;;;;;;;;;;;;;;;22.00;44.36;100847.47;4991029;28;7220;-77
2022/09/05 00:09:14;;;;;;;;;;;;;;;22.01;44.36;100839.66;4989523;28;6880;-78
2022/09/05 00:11:54;;;;;;;;;;;;;;;22.03;44.23;100843.16;4993322;28;6796;-77
2022/09/05 00:14:50;;;;;;;;;;;;;;;22.04;43.98;100852.75;4991287;28;8093;-77
2022/09/05 00:17:34;;;;;;;;;;;;;;;22.04;43.98;100839.69;4990623;28;6808;-78
2022/09/05 00:20:24;;;;;;;;;;;;;;;22.03;44.00;100843.16;4991840;28;7003;-76
2022/09/05 00:23:46;;;;;;;;;;;;;;;22.00;43.89;100832.69;4972579;28;7249;-78
2022/09/05 00:26:44;;;;;;;;;;;;;;;21.96;43.99;100840.47;4972817;28;6992;-77
2022/09/05 00:29:45;;;;;;;;;;;;;;;21.90;44.00;100842.19;4977686;28;6831;-78
2022/09/05 00:32:54;;;;;;;;;;;;;;;21.82;44.05;100840.34;4971039;28;7194;-78
2022/09/05 00:35:56;;;;;;;;;;;;;;;21.73;44.13;100844.66;4988864;28;6812;-78
2022/09/05 00:38:28;;;;;;;;;;;;;;;21.65;44.39;100844.53;4988064;28;7264;-78
2022/09/05 00:41:03;;;;;;;;;;;;;;;21.62;44.53;100847.13;4977082;28;7000;-78
2022/09/05 00:43:42;;;;;;;;;;;;;;;21.60;44.60;100843.63;4994062;28;6804;-78
2022/09/05 00:46:23;;;;;;;;;;;;;;;21.59;44.82;100843.63;4967402;28;7170;-76
2022/09/05 00:49:23;;;;;;;;;;;;;;;21.56;44.86;100836.63;4989132;28;7082;-77
2022/09/05 00:52:08;;;;;;;;;;;;;;;21.50;45.02;100837.44;4991884;28;7243;-78
2022/09/05 00:54:53;;;;;;;;;;;;;;;21.45;44.80;100836.53;4989109;28;8107;-77
2022/09/05 00:57:53;;;;;;;;;;;;;;;21.39;44.83;100839.06;4990044;28;7185;-77
2022/09/05 01:00:33;;;;;;;;;;;;;;;21.32;45.48;100845.06;4988363;28;7242;-77
2022/09/05 01:03:50;;;;;;;;;;;;;;;21.27;45.41;100839.81;4987283;28;7013;-77
2022/09/05 01:06:36;;;;;;;;;;;;;;;21.20;45.37;100844.09;4980489;28;7440;-76
2022/09/05 01:09:22;;;;;;;;;;;;;;;21.17;45.79;100843.19;4988850;28;7183;-77
2022/09/05 01:12:24;;;;;;;;;;;;;;;21.13;45.71;100844.88;4987469;28;6994;-77
2022/09/05 01:15:32;;;;;;;;;;;;;;;21.06;45.74;100843.94;4987149;28;6808;-77
2022/09/05 01:18:46;;;;;;;;;;;;;;;21.01;46.12;100840.41;4990869;28;6812;-76
2022/09/05 01:21:39;;;;;;;;;;;;;;;20.94;45.72;100836.84;4990643;28;6820;-76
2022/09/05 01:24:52;;;;;;;;;;;;;;;20.89;46.27;100843.75;4969687;28;7000;-77
2022/09/05 01:27:46;;;;;;;;;;;;;;;20.81;46.38;100837.53;4988545;28;6804;-77
2022/09/05 01:30:41;;;;;;;;;;;;;;;20.74;46.28;100827.88;4986622;28;6808;-77
2022/09/05 01:33:27;;;;;;;;;;;;;;;20.68;45.92;100834.78;4992116;28;6979;-77
2022/09/05 01:36:32;;;;;;;;;;;;;;;20.63;46.15;100830.34;4988769;28;6804;-77
2022/09/05 01:39:19;;;;;;;;;;;;;;;20.58;46.86;100834.63;4988265;28;7399;-78
2022/09/05 01:42:16;;;;;;;;;;;;;;;20.53;46.84;100822.41;4986763;28;7067;-77
2022/09/05 01:45:16;;;;;;;;;;;;;;;20.52;47.08;100825.88;4987931;28;6796;-77
2022/09/05 01:48:07;;;;;;;;;;;;;;;20.53;46.47;100827.63;4963787;28;6816;-77
2022/09/05 01:50:50;;;;;;;;;;;;;;;20.54;47.15;100825.88;4987245;28;7014;-77
2022/09/05 01:53:46;;;;;;;;;;;;;;;20.51;46.93;100825.84;4987083;28;6824;-77
2022/09/05 01:56:48;;;;;;;;;;;;;;;20.49;47.11;100827.56;4991180;28;7205;-77
2022/09/05 01:59:46;;;;;;;;;;;;;;;20.43;46.99;100822.25;4993084;28;7586;-77
2022/09/05 02:02:26;;;;;;;;;;;;;;;20.39;46.59;100834.34;4993521;28;7106;-77
2022/09/05 02:05:49;;;;;;;;;;;;;;;20.33;47.03;100827.34;4994007;28;7011;-78
2022/09/05 02:08:33;;;;;;;;;;;;;;;20.27;47.86;100829.84;4993288;28;6878;-77
2022/09/05 02:11:06;;;;;;;;;;;;;;;20.26;47.32;100833.28;4990197;28;8102;-77
2022/09/05 02:13:34;;;;;;;;;;;;;;;20.25;47.43;100836.75;4993174;28;7177;-77
2022/09/05 02:16:42;;;;;;;;;;;;;;;20.24;48.27;100835.00;4991560;28;6808;-77
2022/09/05 02:19:07;;;;;;;;;;;;;;;20.23;48.12;100833.25;4968802;28;7028;-77
2022/09/05 02:21:34;;;;;;;;;;;;;;;20.25;47.96;100831.56;4976769;28;6960;-77
2022/09/05 02:24:12;;;;;;;;;;;;;;;20.26;47.81;100836.78;4990903;28;7589;-78
2022/09/05 02:27:09;;;;;;;;;;;;;;;20.28;47.51;100838.53;4993275;28;7055;-77
2022/09/05 02:29:57;;;;;;;;;;;;;;;20.26;47.92;100836.78;4989835;28;7945;-77
2022/09/05 02:33:14;;;;;;;;;;;;;;;20.26;47.57;100836.78;4989933;28;6998;-77
2022/09/05 02:36:07;;;;;;;;;;;;;;;20.25;48.11;100839.34;4989523;28;6824;-77
2022/09/05 02:39:13;;;;;;;;;;;;;;;20.21;47.97;100834.97;4994879;28;8044;-77
2022/09/05 02:42:03;;;;;;;;;;;;;;;20.18;47.56;100833.19;4990370;28;6804;-77
2022/09/05 02:45:04;;;;;;;;;;;;;;;20.16;48.40;100839.22;4988120;28;7366;-77
2022/09/05 02:48:38;;;;;;;;;;;;;;;20.11;47.84;100840.03;4988633;28;7195;-76
2022/09/05 02:51:27;;;;;;;;;;;;;;;20.09;48.39;100844.34;4906467;28;6808;-76
2022/09/05 02:54:15;;;;;;;;;;;;;;;20.10;48.36;100840.00;4959089;28;7046;-74
2022/09/05 02:57:01;;;;;;;;;;;;;;;20.10;48.43;100834.78;4989743;28;6811;-74
2022/09/05 03:00:02;;;;;;;;;;;;;;;20.10;48.39;100838.28;4989592;28;6808;-74
2022/09/05 03:02:57;;;;;;;;;;;;;;;20.09;48.16;100828.72;4986271;28;7359;-74
2022/09/05 03:05:39;;;;;;;;;;;;;;;20.09;48.11;100828.72;4975090;28;6823;-74
2022/09/05 03:08:48;;;;;;;;;;;;;;;20.08;48.42;100826.94;4990862;28;6812;-73
2022/09/05 03:11:32;;;;;;;;;;;;;;;20.05;48.03;100829.50;4992632;28;7021;-74
2022/09/05 03:14:22;;;;;;;;;;;;;;;20.05;48.67;100837.31;4991009;28;7259;-74
2022/09/05 03:17:31;;;;;;;;;;;;;;;20.04;48.01;100838.19;4992482;28;7218;-73
2022/09/05 03:20:51;;;;;;;;;;;;;;;20.04;48.30;100837.28;4993886;28;6831;-75
2022/09/05 03:23:44;;;;;;;;;;;;;;;20.04;47.78;100839.88;4989990;28;7008;-74
2022/09/05 03:26:49;;;;;;;;;;;;;;;20.01;48.38;100834.66;4994145;28;6979;-74
2022/09/05 03:29:53;;;;;;;;;;;;;;;19.96;48.29;100834.56;4988889;28;7000;-74
2022/09/05 03:32:47;;;;;;;;;;;;;;;19.91;48.72;100831.00;4991448;28;7030;-74
2022/09/05 03:35:35;;;;;;;;;;;;;;;19.85;48.15;100829.19;4991729;28;7284;-73
2022/09/05 03:38:33;;;;;;;;;;;;;;;19.79;48.07;100829.94;4991141;28;7013;-73
2022/09/05 03:41:25;;;;;;;;;;;;;;;19.73;48.28;100828.94;4990885;28;7029;-74
2022/09/05 03:45:03;;;;;;;;;;;;;;;19.67;48.58;100829.72;4990810;28;7162;-73
2022/09/05 03:48:26;;;;;;;;;;;;;;;19.62;48.80;100832.25;4948892;28;7172;-73
2022/09/05 03:51:46;;;;;;;;;;;;;;;19.59;48.47;100831.31;4992622;28;7226;-75
2022/09/05 03:54:45;;;;;;;;;;;;;;;19.55;48.59;100827.78;4934919;28;6992;-74
2022/09/05 03:58:08;;;;;;;;;;;;;;;19.52;48.40;100830.34;4990383;28;6867;-74
2022/09/05 04:00:36;;;;;;;;;;;;;;;19.48;48.92;100836.34;4990302;28;7752;-73
2022/09/05 04:03:29;;;;;;;;;;;;;;;19.45;48.99;100833.66;4988650;28;6796;-75
2022/09/05 04:06:26;;;;;;;;;;;;;;;19.42;48.99;100829.31;4989254;28;7028;-73
2022/09/05 04:09:16;;;;;;;;;;;;;;;19.39;48.85;100832.72;4987177;28;6816;-74
2022/09/05 04:11:50;;;;;;;;;;;;;;;19.35;48.74;100833.50;4970667;28;8530;-74
2022/09/05 04:14:53;;;;;;;;;;;;;;;19.33;48.70;100835.19;4988821;28;6807;-74
2022/09/05 04:17:40;;;;;;;;;;;;;;;19.30;49.33;100845.53;4992667;28;7031;-73
2022/09/05 04:20:17;;;;;;;;;;;;;;;19.27;49.48;100835.97;4987454;28;6997;-74
2022/09/05 04:22:58;;;;;;;;;;;;;;;19.25;49.56;100836.75;4985088;28;7905;-74
2022/09/05 04:25:54;;;;;;;;;;;;;;;19.22;49.27;100837.59;4988369;28;7003;-73
2022/09/05 04:29:13;;;;;;;;;;;;;;;19.19;49.58;100836.66;4988835;28;7794;-74
2022/09/05 04:32:28;;;;;;;;;;;;;;;19.15;49.86;100836.59;4958536;28;6852;-74
2022/09/05 04:35:14;;;;;;;;;;;;;;;19.12;49.97;100839.13;4990593;28;6812;-74
2022/09/05 04:37:54;;;;;;;;;;;;;;;19.12;49.74;100843.44;4989859;28;6860;-74
2022/09/05 04:40:39;;;;;;;;;;;;;;;19.12;50.18;100840.84;4990635;28;6987;-74
2022/09/05 04:43:17;;;;;;;;;;;;;;;19.12;49.55;100841.72;4989914;28;7223;-74
2022/09/05 04:46:09;;;;;;;;;;;;;;;19.13;49.62;100837.44;4993178;28;7236;-74
2022/09/05 04:48:52;;;;;;;;;;;;;;;19.12;49.44;100835.66;4990412;28;6808;-73
2022/09/05 04:51:46;;;;;;;;;;;;;;;19.13;50.14;100843.47;4989282;28;6800;-74
2022/09/05 04:54:25;;;;;;;;;;;;;;;19.16;50.13;100847.88;4988762;28;6819;-75
2022/09/05 04:57:09;;;;;;;;;;;;;;;19.22;50.28;100847.09;4994114;28;6811;-74
2022/09/05 04:59:46;;;;;;;;;;;;;;;19.27;50.31;100842.91;4988377;28;6808;-74
2022/09/05 05:02:41;;;;;;;;;;;;;;;19.31;50.00;100841.19;4989673;28;6816;-73
2022/09/05 05:05:20;;;;;;;;;;;;;;;19.34;50.29;100849.94;4988919;28;7060;-74
2022/09/05 05:08:11;;;;;;;;;;;;;;;19.37;50.17;100847.41;4989444;28;6820;-74
2022/09/05 05:11:00;;;;;;;;;;;;;;;19.40;50.17;100851.78;4991966;28;6812;-75
2022/09/05 05:13:41;;;;;;;;;;;;;;;19.42;49.66;100850.97;4966163;28;6997;-73
2022/09/05 05:16:31;;;;;;;;;;;;;;;19.45;49.80;100851.84;4970081;28;6995;-75
2022/09/05 05:19:15;;;;;;;;;;;;;;;19.48;49.81;100855.38;4990336;28;6808;-74
2022/09/05 05:21:50;;;;;;;;;;;;;;;19.51;50.35;100868.47;4986743;28;7447;-75
2022/09/05 05:24:40;;;;;;;;;;;;;;;19.53;50.19;100863.28;4991344;28;6880;-75
2022/09/05 05:27:26;;;;;;;;;;;;;;;19.54;49.61;100865.91;4988618;28;6970;-74
2022/09/05 05:30:09;;;;;;;;;;;;;;;19.55;49.61;100866.78;4986853;28;6799;-73
2022/09/05 05:32:50;;;;;;;;;;;;;;;19.55;50.02;100872.88;4987292;28;11667;-74
2022/09/05 05:35:32;;;;;;;;;;;;;;;19.60;50.11;100879.84;4987733;28;6963;-73
2022/09/05 05:38:03;;;;;;;;;;;;;;;19.63;49.88;100875.59;4968663;28;8573;-73
2022/09/05 05:40:32;;;;;;;;;;;;;;;19.67;49.89;100872.22;4989980;28;6804;-74
2022/09/05 05:43:25;;;;;;;;;;;;;;;19.73;50.26;100870.56;4990173;28;6959;-74
2022/09/05 05:45:59;;;;;;;;;;;;;;;19.76;50.19;100873.22;4990906;28;6970;-74
2022/09/05 05:48:38;;;;;;;;;;;;;;;19.83;49.97;100869.88;4977944;28;7237;-73
2022/09/05 05:51:44;;;;;;;;;;;;;;;19.89;50.54;100872.59;4986509;28;6871;-73
2022/09/05 05:54:46;;;;;;;;;;;;;;;19.96;50.43;100878.78;4985948;28;6815;-74
2022/09/05 05:57:58;;;;;;;;;;;;;;;20.02;50.61;100884.13;4985908;28;6816;-75
2022/09/05 06:00:53;;;;;;;;;;;;;;;20.10;50.44;100887.72;4991035;28;6815;-75
2022/09/05 06:03:44;;;;;;;;;;;;;;;20.18;50.18;100890.44;4988874;28;6800;-74
2022/09/05 06:07:00;;;;;;;;;;;;;;;20.29;50.55;100890.63;4986137;28;6963;-74
2022/09/05 06:10:21;;;;;;;;;;;;;;;20.39;50.01;100891.63;4982071;28;7025;-74
2022/09/05 06:13:20;;;;;;;;;;;;;;;20.55;50.14;100895.31;4939346;28;7397;-73
2022/09/05 06:16:38;;;;;;;;;;;;;;;20.67;50.11;100895.53;4965699;28;6846;-74
2022/09/05 06:20:06;;;;;;;;;;;;;;;20.78;50.16;100887.84;4987186;28;7035;-73
2022/09/05 06:22:53;;;;;;;;;;;;;;;20.92;50.19;100888.06;4968967;28;7019;-73
2022/09/05 06:26:16;;;;;;;;;;;;;;;21.05;50.12;100896.91;4990006;28;7333;-74
2022/09/05 06:29:00;;;;;;;;;;;;;;;21.17;49.86;100896.19;4990435;28;8430;-74
2022/09/05 06:31:59;;;;;;;;;;;;;;;21.29;49.62;100905.00;4986610;28;6872;-73
2022/09/05 06:35:10;;;;;;;;;;;;;;;21.42;49.66;100901.66;4985237;28;7299;-74
2022/09/05 06:38:26;;;;;;;;;;;;;;;21.56;49.32;100903.56;4972303;28;7270;-75
2022/09/05 06:41:29;;;;;;;;;;;;;;;21.69;49.37;100902.00;4972555;28;7036;-74
2022/09/05 06:44:42;;;;;;;;;;;;;;;21.82;48.98;100896.03;4992959;28;6979;-74
2022/09/05 06:47:18;;;;;;;;;;;;;;;21.96;48.85;100896.16;4992840;28;6815;-74
2022/09/05 06:50:23;;;;;;;;;;;;;;;22.10;48.66;100904.09;4988633;28;6804;-74
2022/09/05 06:53:25;;;;;;;;;;;;;;;22.24;48.51;100898.09;4972643;28;7146;-75
2022/09/05 06:56:08;;;;;;;;;;;;;;;22.36;47.85;100902.56;4993620;28;6808;-74
2022/09/05 06:58:45;;;;;;;;;;;;;;;22.49;48.11;100899.19;4991030;28;7007;-74
2022/09/05 07:01:18;;;;;;;;;;;;;;;22.61;47.76;100903.63;4989175;28;7196;-75
2022/09/05 07:04:13;;;;;;;;;;;;;;;22.74;47.30;100909.78;4990883;28;7285;-74
2022/09/05 07:07:21;;;;;;;;;;;;;;;22.88;47.34;100902.03;4995618;28;7368;-73
2022/09/05 07:10:13;;;;;;;;;;;;;;;23.02;47.04;100899.47;4990076;28;6800;-74
2022/09/05 07:12:55;;;;;;;;;;;;;;;23.18;46.41;100905.63;4974337;28;7122;-74
2022/09/05 07:15:43;;;;;;;;;;;;;;;23.33;46.07;100897.00;4975203;28;6803;-74
2022/09/05 07:18:33;;;;;;;;;;;;;;;23.46;45.78;100899.66;4991202;28;7849;-74
2022/09/05 07:21:16;;;;;;;;;;;;;;;23.60;45.67;100897.94;4988758;28;7696;-74
2022/09/05 07:23:55;;;;;;;;;;;;;;;23.76;45.39;100900.56;4991436;28;6945;-74
2022/09/05 07:26:23;;;;;;;;;;;;;;;23.88;45.37;100902.34;4975295;28;7467;-74
2022/09/05 07:28:58;;;;;;;;;;;;;;;24.00;44.84;100900.59;4991147;28;7043;-74
2022/09/05 07:31:27;;;;;;;;;;;;;;;24.15;44.54;100901.53;4989391;28;6812;-74
2022/09/05 07:34:30;;;;;;;;;;;;;;;24.31;44.66;100904.09;4991828;28;6796;-74
2022/09/05 07:37:04;;;;;;;;;;;;;;;24.44;44.51;100903.22;4970981;28;7218;-74
2022/09/05 07:39:40;;;;;;;;;;;;;;;24.63;43.73;100909.28;4987051;28;6868;-74
2022/09/05 07:42:19;;;;;;;;;;;;;;;24.78;43.79;100899.69;4988121;28;6788;-75
2022/09/05 07:44:58;;;;;;;;;;;;;;;24.93;43.10;100902.25;4988871;28;7351;-74
2022/09/05 07:47:38;;;;;;;;;;;;;;;25.07;43.19;100899.56;4987396;28;6804;-75
2022/09/05 07:50:11;;;;;;;;;;;;;;;25.23;42.88;100902.97;4986280;28;6978;-74
2022/09/05 07:52:43;;;;;;;;;;;;;;;25.40;42.91;100906.38;4986744;28;6965;-74
2022/09/05 07:55:34;;;;;;;;;;;;;;;25.58;42.51;100908.94;4988138;28;7783;-75
2022/09/05 07:58:13;;;;;;;;;;;;;;;25.75;42.48;100913.22;4972185;28;6804;-75
2022/09/05 08:00:49;;;;;;;;;;;;;;;25.93;42.42;100907.81;4988015;28;6812;-74
2022/09/05 08:03:15;;;;;;;;;;;;;;;26.11;42.25;100910.31;4988329;28;6812;-75
2022/09/05 08:05:53;;;;;;;;;;;;;;;26.28;41.88;100912.84;4989397;28;6816;-75
2022/09/05 08:08:30;;;;;;;;;;;;;;;26.43;41.70;100899.53;4990757;28;7353;-74
2022/09/05 08:11:12;;;;;;;;;;;;;;;26.59;41.39;100902.00;4988871;28;6792;-75
2022/09/05 08:13:44;;;;;;;;;;;;;;;26.72;41.27;100900.97;4990586;28;6857;-75
2022/09/05 08:16:17;;;;;;;;;;;;;;;26.87;41.04;100894.66;4971796;28;6993;-72
2022/09/05 08:19:48;;;;;;;;;;;;;;;27.00;40.79;100891.94;4990019;28;6816;-73
2022/09/05 08:22:28;;;;;;;;;;;;;;;27.12;40.51;100891.75;4992478;28;6868;-72
2022/09/05 08:24:53;;;;;;;;;;;;;;;27.24;40.05;100885.47;4989151;28;7023;-72
2022/09/05 08:28:06;;;;;;;;;;;;;;;27.35;39.79;100889.72;4988683;28;6802;-71
2022/09/05 08:30:44;;;;;;;;;;;;;;;27.48;39.56;100899.16;4987285;28;6884;-72
2022/09/05 08:33:24;;;;;;;;;;;;;;;27.63;39.63;100898.09;4987709;28;6804;-72
2022/09/05 08:36:09;;;;;;;;;;;;;;;27.76;38.97;100896.13;4972502;28;7304;-73
2022/09/05 08:38:39;;;;;;;;;;;;;;;27.93;38.89;100901.13;4986326;28;7067;-72
2022/09/05 08:41:55;;;;;;;;;;;;;;;28.10;38.29;100895.59;4988567;28;6792;-74
2022/09/05 08:44:54;;;;;;;;;;;;;;;28.30;38.26;100897.03;4978306;28;7031;-73
2022/09/05 08:48:09;;;;;;;;;;;;;;;28.45;37.28;100880.06;4992576;28;7250;-73
2022/09/05 08:51:12;;;;;;;;;;;;;;;28.63;37.65;100888.47;4987019;28;6983;-72
2022/09/05 08:54:01;;;;;;;;;;;;;;;28.77;37.36;100882.94;4990495;28;6943;-72
2022/09/05 08:57:13;;;;;;;;;;;;;;;28.95;37.52;100879.94;4987784;28;6824;-73
2022/09/05 08:59:54;;;;;;;;;;;;;;;29.13;37.39;100885.72;4988656;28;6808;-72
2022/09/05 09:03:00;;;;;;;;;;;;;;;29.32;36.40;100883.56;4992072;28;6841;-73
2022/09/05 09:05:43;;;;;;;;;;;;;;;29.46;36.29;100880.63;4986792;28;7171;-73
2022/09/05 09:08:44;;;;;;;;;;;;;;;29.61;36.56;100883.78;4988421;28;7006;-73
2022/09/05 09:11:34;;;;;;;;;;;;;;;29.77;35.77;100879.00;4987352;28;6837;-72
2022/09/05 09:14:37;;;;;;;;;;;;;;;29.97;35.83;100875.88;4985945;28;7212;-73
2022/09/05 09:17:30;;;;;;;;;;;;;;;30.15;35.09;100876.34;4989376;28;7299;-72
2022/09/05 09:20:23;;;;;;;;;;;;;;;30.31;35.34;100867.06;4989719;28;7253;-73
2022/09/05 09:23:04;;;;;;;;;;;;;;;30.48;34.62;100873.66;4994276;28;7157;-72
2022/09/05 09:25:53;;;;;;;;;;;;;;;30.63;33.55;100859.13;4989562;28;7182;-73
2022/09/05 09:28:41;;;;;;;;;;;;;;;30.80;33.57;100857.81;4988447;28;7185;-72
2022/09/05 09:31:26;;;;;;;;;;;;;;;30.98;32.53;100856.38;4987110;28;6796;-72
2022/09/05 09:34:24;;;;;;;;;;;;;;;31.11;31.71;100855.13;4987587;28;8053;-72
2022/09/05 09:36:52;;;;;;;;;;;;;;;31.22;31.95;100851.25;4989953;28;6800;-73
2022/09/05 09:39:48;;;;;;;;;;;;;;;31.31;30.90;100848.34;4989822;28;6796;-73
2022/09/05 09:42:47;;;;;;;;;;;;;;;31.41;30.74;100844.50;4990242;28;6816;-74
2022/09/05 09:46:01;;;;;;;;;;;;;;;31.59;31.00;100837.72;4991609;28;6974;-72
2022/09/05 09:48:54;;;;;;;;;;;;;;;31.78;30.36;100834.44;4975435;28;7388;-72
2022/09/05 09:51:54;;;;;;;;;;;;;;;32.05;29.88;100834.44;4990344;28;6966;-73
2022/09/05 09:54:39;;;;;;;;;;;;;;;32.42;29.54;100827.84;4989283;28;6978;-73
2022/09/05 09:58:02;;;;;;;;;;;;;;;32.88;28.82;100831.44;4972364;28;6937;-73
2022/09/05 10:00:54;;;;;;;;;;;;;;;33.66;28.37;100822.13;4987946;28;7300;-72
2022/09/05 10:04:15;;;;;;;;;;;;;;;34.93;27.86;100820.06;4987873;28;6831;-72
2022/09/05 10:07:14;;;;;;;;;;;;;;;36.50;26.32;100811.28;4972613;28;7305;-72
2022/09/05 10:10:24;;;;;;;;;;;;;;;38.19;23.63;100812.22;4986680;28;6978;-73
2022/09/05 10:13:10;;;;;;;;;;;;;;;39.39;22.06;100803.72;4989224;28;6820;-73
2022/09/05 10:16:24;;;;;;;;;;;;;;;40.26;20.70;100803.97;4974807;28;6997;-74
2022/09/05 10:19:40;;;;;;;;;;;;;;;41.11;19.74;100814.91;4971378;28;6987;-73
2022/09/05 10:22:39;;;;;;;;;;;;;;;41.88;18.70;100816.25;4993393;28;7178;-74
2022/09/05 10:25:48;;;;;;;;;;;;;;;42.58;18.32;100802.66;4994126;28;6812;-73
2022/09/05 10:28:36;;;;;;;;;;;;;;;43.27;17.54;100805.97;4991902;28;7129;-73
2022/09/05 10:31:15;;;;;;;;;;;;;;;43.72;16.81;100801.28;4991711;28;6812;-72
2022/09/05 10:34:17;;;;;;;;;;;;;;;44.12;16.69;100799.66;4990555;28;6811;-72
2022/09/05 10:36:53;;;;;;;;;;;;;;;44.46;16.70;100801.19;4989698;28;6983;-73
2022/09/05 10:39:29;;;;;;;;;;;;;;;44.60;16.41;100799.94;4977376;28;6827;-73
2022/09/05 10:42:03;;;;;;;;;;;;;;;44.85;15.83;100797.69;4995250;28;6975;-74
2022/09/05 10:44:45;;;;;;;;;;;;;;;45.08;15.34;100799.13;4993282;28;6800;-73
2022/09/05 10:47:38;;;;;;;;;;;;;;;45.45;15.32;100797.53;4988890;28;6811;-73
2022/09/05 10:50:32;;;;;;;;;;;;;;;45.83;14.54;100789.47;4994811;28;7077;-75
2022/09/05 10:53:35;;;;;;;;;;;;;;;46.11;14.47;100792.16;4990949;28;6807;-74
2022/09/05 10:56:17;;;;;;;;;;;;;;;46.56;14.06;100787.81;4990575;28;7006;-74
2022/09/05 10:59:03;;;;;;;;;;;;;;;46.79;13.52;100792.75;4991297;28;7097;-74
2022/09/05 11:01:40;;;;;;;;;;;;;;;46.78;13.00;100779.34;4974183;28;7255;-73
2022/09/05 11:04:38;;;;;;;;;;;;;;;46.66;12.72;100784.19;4976485;28;7001;-73
2022/09/05 11:07:20;;;;;;;;;;;;;;;46.46;12.44;100778.88;4975201;28;7086;-72
2022/09/05 11:10:19;;;;;;;;;;;;;;;46.16;12.92;100783.56;4973573;28;6996;-73
2022/09/05 11:13:15;;;;;;;;;;;;;;;46.15;13.36;100784.59;4990588;28;6812;-72
2022/09/05 11:15:56;;;;;;;;;;;;;;;46.11;13.29;100775.06;4991713;28;7302;-75
2022/09/05 11:19:01;;;;;;;;;;;;;;;46.01;13.13;100778.69;4997950;28;6892;-73
2022/09/05 11:21:55;;;;;;;;;;;;;;;46.20;13.07;100766.06;4995979;28;7491;-73
2022/09/05 11:24:56;;;;;;;;;;;;;;;46.60;13.32;100769.34;4993346;28;7205;-73
2022/09/05 11:27:37;;;;;;;;;;;;;;;47.18;12.92;100761.75;4991637;28;7102;-73
2022/09/05 11:30:14;;;;;;;;;;;;;;;47.59;12.72;100765.75;4987940;28;6804;-74
2022/09/05 11:33:40;;;;;;;;;;;;;;;47.89;12.39;100755.38;4987746;28;11310;-73
2022/09/05 11:36:32;;;;;;;;;;;;;;;47.90;12.02;100757.06;4990885;28;7251;-73
2022/09/05 11:39:24;;;;;;;;;;;;;;;47.83;12.04;100763.16;4991043;28;7031;-73
2022/09/05 11:42:26;;;;;;;;;;;;;;;47.85;12.52;100759.41;4991295;28;6816;-73
2022/09/05 11:45:18;;;;;;;;;;;;;;;48.02;12.07;100747.59;4989097;28;6831;-73
2022/09/05 11:48:20;;;;;;;;;;;;;;;48.10;11.89;100746.81;4987762;28;6868;-73
2022/09/05 11:51:18;;;;;;;;;;;;;;;48.05;11.35;100750.00;4988364;28;6808;-74
2022/09/05 11:54:22;;;;;;;;;;;;;;;48.01;11.48;100745.91;4992242;28;6811;-73
2022/09/05 11:57:30;;;;;;;;;;;;;;;48.12;11.22;100742.06;4989634;28;7174;-73
2022/09/05 12:00:11;;;;;;;;;;;;;;;47.93;11.26;100741.31;4994326;28;6879;-73
2022/09/05 12:03:36;;;;;;;;;;;;;;;47.40;11.13;100727.81;4991130;28;11478;-73
2022/09/05 12:06:32;;;;;;;;;;;;;;;46.77;11.54;100724.31;4951027;28;7444;-73
2022/09/05 12:10:00;;;;;;;;;;;;;;;46.39;11.81;100731.72;4940945;28;6832;-74
2022/09/05 12:12:56;;;;;;;;;;;;;;;46.25;12.01;100736.66;4976666;28;7036;-73
2022/09/05 12:15:33;;;;;;;;;;;;;;;46.35;12.13;100730.31;4973420;28;6991;-73
2022/09/05 12:18:27;;;;;;;;;;;;;;;46.54;12.13;100719.31;4991504;28;7252;-75
2022/09/05 12:21:19;;;;;;;;;;;;;;;46.95;11.88;100731.59;4989247;28;6812;-72
2022/09/05 12:23:54;;;;;;;;;;;;;;;46.89;11.50;100732.19;4990997;28;6819;-73
2022/09/05 12:26:39;;;;;;;;;;;;;;;45.74;11.74;100734.34;4990096;28;6824;-73
2022/09/05 12:29:21;;;;;;;;;;;;;;;44.24;12.72;100735.63;4987973;28;7304;-73
2022/09/05 12:31:58;;;;;;;;;;;;;;;43.04;13.57;100736.97;4988764;28;6831;-73
2022/09/05 12:34:52;;;;;;;;;;;;;;;42.12;14.07;100733.69;4992394;28;6816;-73
2022/09/05 12:37:36;;;;;;;;;;;;;;;41.45;14.75;100739.75;4989254;28;6815;-72
2022/09/05 12:40:09;;;;;;;;;;;;;;;40.99;15.04;100741.44;4988010;28;7057;-72
2022/09/05 12:42:53;;;;;;;;;;;;;;;40.55;14.81;100741.13;4972817;28;6998;-73
2022/09/05 12:45:46;;;;;;;;;;;;;;;39.97;15.29;100736.31;4987171;28;6998;-73
2022/09/05 12:48:33;;;;;;;;;;;;;;;39.55;16.27;100733.84;4994349;28;7057;-73
2022/09/05 12:51:18;;;;;;;;;;;;;;;39.39;16.17;100732.19;4987879;28;7139;-74
2022/09/05 12:53:53;;;;;;;;;;;;;;;39.60;16.39;100729.03;4987195;28;6983;-73
2022/09/05 12:57:06;;;;;;;;;;;;;;;39.89;16.45;100731.50;4956033;28;7012;-73
2022/09/05 12:59:36;;;;;;;;;;;;;;;39.97;15.86;100729.13;4920338;29;7076;-75
2022/09/05 13:02:08;;;;;;;;;;;;;;;39.93;15.69;100724.94;4957091;28;6805;-75
2022/09/05 13:04:42;;;;;;;;;;;;;;;39.90;16.00;100725.19;4974331;28;6988;-73
2022/09/05 13:07:21;;;;;;;;;;;;;;;39.92;16.10;100717.88;4985954;28;6864;-72
2022/09/05 13:09:56;;;;;;;;;;;;;;;39.78;15.68;100715.28;4973599;28;6847;-73
2022/09/05 13:12:32;;;;;;;;;;;;;;;39.53;15.83;100709.81;4973921;28;7002;-74
2022/09/05 13:15:35;;;;;;;;;;;;;;;39.09;15.84;100711.06;4990659;28;6804;-72
2022/09/05 13:18:22;;;;;;;;;;;;;;;38.79;16.11;100702.28;4990536;28;6895;-73
2022/09/05 13:21:22;;;;;;;;;;;;;;;38.96;16.44;100701.16;4989378;28;6863;-73
2022/09/05 13:24:06;;;;;;;;;;;;;;;39.34;16.46;100699.50;4974068;28;7161;-74
2022/09/05 13:27:06;;;;;;;;;;;;;;;39.55;16.25;100701.69;4990455;28;6827;-72
2022/09/05 13:29:54;;;;;;;;;;;;;;;39.43;16.31;100693.53;4989074;28;6828;-73
2022/09/05 13:32:29;;;;;;;;;;;;;;;39.15;15.94;100694.56;4986203;28;6823;-73
2022/09/05 13:35:20;;;;;;;;;;;;;;;38.85;16.72;100691.16;4987380;28;6804;-73
2022/09/05 13:38:14;;;;;;;;;;;;;;;38.62;16.58;100682.84;4991902;28;6800;-72
2022/09/05 13:40:47;;;;;;;;;;;;;;;38.37;16.65;100694.28;4988734;28;6812;-72
2022/09/05 13:43:26;;;;;;;;;;;;;;;38.42;17.52;100673.44;4986243;28;6867;-73
2022/09/05 13:46:02;;;;;;;;;;;;;;;38.86;17.54;100679.50;4984660;28;7268;-72
2022/09/05 13:48:55;;;;;;;;;;;;;;;39.11;16.89;100683.19;4990012;28;7742;-74
2022/09/05 13:52:24;;;;;;;;;;;;;;;39.03;16.53;100682.88;4986845;28;6800;-74
2022/09/05 13:55:42;;;;;;;;;;;;;;;38.74;16.73;100674.97;4934985;28;7138;-73
2022/09/05 13:58:48;;;;;;;;;;;;;;;38.39;17.56;100668.28;4933966;28;6972;-72
2022/09/05 14:01:39;;;;;;;;;;;;;;;38.15;17.21;100660.03;4991681;28;6855;-73
2022/09/05 14:04:50;;;;;;;;;;;;;;;37.94;17.51;100668.44;4989464;28;7189;-72
2022/09/05 14:07:56;;;;;;;;;;;;;;;37.71;18.19;100656.53;4992261;28;6800;-73
2022/09/05 14:10:48;;;;;;;;;;;;;;;37.51;17.83;100654.13;4994211;28;7214;-73
2022/09/05 14:13:23;;;;;;;;;;;;;;;37.31;17.82;100657.19;4992266;28;7242;-73
2022/09/05 14:15:58;;;;;;;;;;;;;;;37.12;17.88;100660.09;4993253;28;7140;-73
2022/09/05 14:21:34;;;;;;;;;;;;;;;36.81;18.82;100668.97;4980705;28;6809;-73
2022/09/05 14:24:24;;;;;;;;;;;;;;;36.73;18.84;100668.53;4975821;28;7061;-73
2022/09/05 14:27:14;;;;;;;;;;;;;;;36.66;19.37;100660.03;4996677;28;6819;-73
2022/09/05 14:29:53;;;;;;;;;;;;;;;36.58;19.18;100658.78;4978455;28;7162;-74
2022/09/05 14:32:18;;;;;;;;;;;;;;;36.51;19.51;100651.09;4972539;28;7154;-72
2022/09/05 14:34:57;;;;;;;;;;;;;;;36.46;20.42;100654.97;4993196;28;8535;-72
2022/09/05 14:37:36;;;;;;;;;;;;;;;36.42;20.60;100651.63;4993798;28;7202;-74
2022/09/05 14:40:35;;;;;;;;;;;;;;;36.37;20.38;100657.22;4992993;28;6868;-73
2022/09/05 14:43:45;;;;;;;;;;;;;;;36.26;19.81;100651.63;4993915;28;7025;-73
2022/09/05 14:46:53;;;;;;;;;;;;;;;36.15;20.41;100644.22;4978322;28;7173;-72
2022/09/05 14:50:26;;;;;;;;;;;;;;;36.02;20.20;100643.19;4974905;28;7028;-73
2022/09/05 14:53:13;;;;;;;;;;;;;;;35.89;19.69;100648.31;4990720;28;7144;-72
2022/09/05 14:56:01;;;;;;;;;;;;;;;35.83;19.90;100645.06;4991235;28;6867;-73